Portada
METAR-TAF:

METAR-TAF

Aeroports :

Aeroport Internacional de Fujairah

Fujairah, Emirats Àrabs Units

latitud: 25-06N, longitud: 056-20E, altitud: 28 m

Observació

L'informe es va fer fa 16 minuts, a les 11:50 UTC
Vent 8 kt del Est, variant entre Est/Nord-Est i Sud-Est
Temperatura 38°C
Humitat 51%
Pressió 990 hPa
Visibilitat: 8000 m

METAR: OMFJ 241150Z 09008KT 060V130 8000 NSC 38/26 Q0990 RMK A2926

Hora: 16:06 (12:06 UTC)

Pronòstic

L'informe es va fer fa 1 hora i 6 minuts, a les 11:00 UTC
Pronòstic vàlid del 24 a les 12 UTC al 25 a les 18 UTC
Vent 10 kt del Est/Nord-Est
Visibilitat: 8000 m
Evolucionant progressivament
l' 24 a les 14 UTC al 24 a les 16 UTC
Vent 14 kt del Oest/Nord-Oest
Probabilitat 30%
l' 24 a les 18 UTC al 25 a les 02 UTC
Vent 15 kt del Oest/Nord-Oest amb ràfegues de 25 kt
Visibilitat: 4000 m
torb alta de pols,

TAF: OMFJ 241100Z 2412/2518 07010KT 8000 NSC BECMG 2414/2416 29014KT PROB30 2418/2502 30015G25KT 4000 BLDU

Observacions i pronòstics meteorològics de més de 4000 aeroports (METAR i TAF).

Les estacions disponibles són els punts grocs i vermells al mapa.

Posi el ratolí al punt desitjat per veure el nom de l'estació.

Feu clic per veure les observacions i els pronòstics meteorològics.

Per canviar el mapa: feu clic els botons verds amb una creu de color negre per apropar; al botó verd amb un guió per allunyar la imatge; o en les fletxes verdes per a mapes adjacents.


METAR-TAF: